createdAt,value
2019-04-14T00:01:39.082Z,3.45
2019-04-14T00:04:35.465Z,3.07
2019-04-14T00:10:46.488Z,3.29
2019-04-14T00:13:15.870Z,3.45
2019-04-14T00:15:48.776Z,3.31
2019-04-14T00:18:25.797Z,3.27
2019-04-14T00:20:55.567Z,3.32
2019-04-14T00:23:45.677Z,3.29
2019-04-14T00:29:50.326Z,3.25
2019-04-14T00:35:40.625Z,3.28
2019-04-14T00:38:30.137Z,3.23
2019-04-14T00:44:25.503Z,3.30
2019-04-14T00:49:50.882Z,3.13
2019-04-14T00:52:31.772Z,3.30
2019-04-14T00:55:46.909Z,3.30
2019-04-14T00:58:17.097Z,3.34
2019-04-14T01:01:07.000Z,3.44
2019-04-14T01:03:43.763Z,3.29
2019-04-14T01:06:20.692Z,3.10
2019-04-14T01:08:55.605Z,3.21
2019-04-14T01:11:24.961Z,3.11
2019-04-14T01:13:55.073Z,3.12
2019-04-14T01:16:31.934Z,3.14
2019-04-14T01:19:07.464Z,3.14
2019-04-14T01:21:37.103Z,3.11
2019-04-14T01:24:27.196Z,3.20
2019-04-14T01:26:57.113Z,3.25
2019-04-14T01:29:47.355Z,3.18
2019-04-14T01:32:24.058Z,3.10
2019-04-14T01:34:59.539Z,3.11
2019-04-14T01:37:29.117Z,3.11
2019-04-14T01:40:19.047Z,3.23
2019-04-14T01:42:48.572Z,3.07
2019-04-14T01:48:14.779Z,3.05
2019-04-14T01:51:13.602Z,3.02
2019-04-14T01:57:11.396Z,3.06
2019-04-14T02:02:50.930Z,2.94
2019-04-14T02:05:45.656Z,2.76
2019-04-14T02:08:15.496Z,2.90
2019-04-14T02:11:05.338Z,3.02
2019-04-14T02:13:35.450Z,3.15
2019-04-14T02:16:32.972Z,3.08
2019-04-14T02:19:06.624Z,3.11
2019-04-14T02:24:54.815Z,3.16
2019-04-14T02:27:45.001Z,2.95
2019-04-14T02:30:24.999Z,3.10
2019-04-14T02:33:26.627Z,3.04
2019-04-14T02:36:06.289Z,2.99
2019-04-14T02:38:45.696Z,2.88
2019-04-14T02:41:30.031Z,3.01
2019-04-14T02:44:09.796Z,3.03
2019-04-14T02:46:38.280Z,2.96
2019-04-14T02:49:08.266Z,2.99
2019-04-14T02:51:43.886Z,2.96
2019-04-14T02:54:24.593Z,2.61
2019-04-14T02:57:05.479Z,2.66
2019-04-14T03:02:56.414Z,2.84
2019-04-14T03:11:49.143Z,2.76
2019-04-14T03:14:17.400Z,2.69
2019-04-14T03:17:29.169Z,2.58
2019-04-14T03:28:37.830Z,2.56
2019-04-14T03:34:30.695Z,2.59
2019-04-14T03:39:31.839Z,2.66
2019-04-14T03:42:01.584Z,2.72
2019-04-14T03:44:41.802Z,2.58
2019-04-14T03:47:25.689Z,2.59
2019-04-14T03:49:52.897Z,2.58
2019-04-14T03:52:41.564Z,2.59
2019-04-14T03:54:56.702Z,2.45
2019-04-14T03:57:19.325Z,2.66
2019-04-14T03:59:56.383Z,2.44
2019-04-14T04:02:31.947Z,2.74
2019-04-14T04:05:02.249Z,2.61
2019-04-14T04:07:51.793Z,2.46
2019-04-14T04:10:29.206Z,2.55
2019-04-14T04:13:04.575Z,2.63
2019-04-14T04:19:27.285Z,2.47
2019-04-14T04:22:15.731Z,2.56
2019-04-14T04:27:44.089Z,2.51
2019-04-14T04:30:32.499Z,2.42
2019-04-14T04:33:22.025Z,2.46
2019-04-14T04:36:18.183Z,2.42
2019-04-14T04:41:49.571Z,2.43
2019-04-14T04:44:20.131Z,2.63
2019-04-14T04:46:56.883Z,2.72
2019-04-14T04:49:32.935Z,2.56
2019-04-14T04:52:11.095Z,2.72
2019-04-14T04:54:45.072Z,2.78
2019-04-14T04:57:15.486Z,2.90
2019-04-14T05:03:27.783Z,2.65
2019-04-14T05:06:35.719Z,2.78
2019-04-14T05:09:44.973Z,2.69
2019-04-14T05:12:33.430Z,2.90
2019-04-14T05:18:02.756Z,2.58
2019-04-14T05:20:33.395Z,2.46
2019-04-14T05:23:23.343Z,2.76
2019-04-14T05:26:03.000Z,2.82
2019-04-14T05:28:33.161Z,2.88
2019-04-14T05:31:09.694Z,2.82
2019-04-14T05:33:44.861Z,2.79
2019-04-14T05:36:15.020Z,2.90
2019-04-14T05:42:28.667Z,2.65
2019-04-14T05:48:13.940Z,2.82
2019-04-14T05:51:04.170Z,2.99
2019-04-14T05:53:43.917Z,2.91
2019-04-14T05:56:14.326Z,2.96
2019-04-14T05:58:51.436Z,2.80
2019-04-14T06:01:27.038Z,2.90
2019-04-14T06:04:02.934Z,2.94
2019-04-14T06:06:32.661Z,3.09
2019-04-14T06:09:02.021Z,3.09
2019-04-14T06:11:31.623Z,2.97
2019-04-14T06:14:00.965Z,3.04
2019-04-14T06:16:30.309Z,3.05
2019-04-14T06:19:00.023Z,3.05
2019-04-14T06:21:31.009Z,2.68
2019-04-14T06:24:00.351Z,2.63
2019-04-14T06:26:30.013Z,2.75
2019-04-14T06:28:59.422Z,2.97
2019-04-14T06:34:43.602Z,2.88
2019-04-14T06:37:32.062Z,2.96
2019-04-14T06:42:56.916Z,3.35
2019-04-14T06:45:26.277Z,3.23
2019-04-14T06:47:55.630Z,3.32
2019-04-14T06:50:24.978Z,3.14
2019-04-14T06:52:54.332Z,3.55
2019-04-14T06:55:23.680Z,3.89
2019-04-14T06:57:53.036Z,3.88
2019-04-14T07:00:22.536Z,3.79
2019-04-14T07:02:51.886Z,3.83
2019-04-14T07:05:21.231Z,3.88
2019-04-14T07:07:56.873Z,3.64
2019-04-14T07:10:41.037Z,3.62
2019-04-14T07:13:13.805Z,3.58
2019-04-14T07:15:50.693Z,3.66
2019-04-14T07:18:20.029Z,3.67
2019-04-14T07:20:55.319Z,3.77
2019-04-14T07:23:24.670Z,4.04
2019-04-14T07:25:54.010Z,4.26
2019-04-14T07:28:23.361Z,4.04
2019-04-14T07:31:11.814Z,4.47
2019-04-14T07:34:00.273Z,4.63
2019-04-14T07:36:48.994Z,4.39
2019-04-14T07:45:12.756Z,4.79
2019-04-14T07:50:56.881Z,4.62
2019-04-14T07:56:46.988Z,4.42
2019-04-14T07:59:35.441Z,4.64
2019-04-14T08:02:24.149Z,4.92
2019-04-14T08:08:02.625Z,5.20
2019-04-14T08:10:31.944Z,5.25
2019-04-14T08:13:01.304Z,4.98
2019-04-14T08:15:30.646Z,5.46
2019-04-14T08:17:59.984Z,5.68
2019-04-14T08:20:29.341Z,5.29
2019-04-14T08:22:58.704Z,5.48
2019-04-14T08:25:28.062Z,5.21
2019-04-14T08:27:57.403Z,5.55
2019-04-14T08:30:26.783Z,5.88
2019-04-14T08:32:56.127Z,6.28
2019-04-14T08:35:25.751Z,6.06
2019-04-14T08:37:55.105Z,6.21
2019-04-14T08:40:24.438Z,6.10
2019-04-14T08:43:12.892Z,5.88
2019-04-14T08:48:56.809Z,6.11
2019-04-14T08:54:54.350Z,6.79
2019-04-14T09:00:51.981Z,7.09
2019-04-14T09:03:40.664Z,6.76
2019-04-14T09:06:29.155Z,6.30
2019-04-14T09:09:17.605Z,6.23
2019-04-14T09:14:27.881Z,6.26
2019-04-14T09:16:57.212Z,6.43
2019-04-14T09:19:26.566Z,6.51
2019-04-14T09:21:55.900Z,6.81
2019-04-14T09:24:30.913Z,7.25
2019-04-14T09:32:55.137Z,7.14
2019-04-14T09:35:24.469Z,7.37
2019-04-14T09:38:06.035Z,7.00
2019-04-14T09:40:35.631Z,7.51
2019-04-14T09:43:05.328Z,7.23
2019-04-14T09:45:34.680Z,7.62
2019-04-14T09:48:05.648Z,7.51
2019-04-14T09:50:34.989Z,7.84
2019-04-14T09:53:04.378Z,7.77
2019-04-14T09:55:33.829Z,6.96
2019-04-14T09:58:03.162Z,7.13
2019-04-14T10:03:13.159Z,7.31
2019-04-14T10:05:42.493Z,7.71
2019-04-14T10:08:11.873Z,7.72
2019-04-14T10:10:41.204Z,7.89
2019-04-14T10:13:29.667Z,7.94
2019-04-14T10:15:58.975Z,7.98
2019-04-14T10:18:28.315Z,8.32
2019-04-14T10:20:57.661Z,8.53
2019-04-14T10:23:26.993Z,8.70
2019-04-14T10:26:01.550Z,9.05
2019-04-14T10:28:30.884Z,8.58
2019-04-14T10:31:00.220Z,8.90
2019-04-14T10:33:29.560Z,7.69
2019-04-14T10:35:59.235Z,8.37
2019-04-14T10:38:28.577Z,8.43
2019-04-14T10:40:57.910Z,8.36
2019-04-14T10:43:27.353Z,7.96
2019-04-14T10:45:56.692Z,8.69
2019-04-14T10:48:26.026Z,8.92
2019-04-14T10:50:55.374Z,8.93
2019-04-14T10:53:24.698Z,8.98
2019-04-14T10:55:54.035Z,9.64
2019-04-14T10:58:23.371Z,9.72
2019-04-14T11:00:53.077Z,10.11
2019-04-14T11:03:22.430Z,9.00
2019-04-14T11:08:48.205Z,8.61
2019-04-14T11:11:17.538Z,8.62
2019-04-14T11:13:46.889Z,9.25
2019-04-14T11:16:16.231Z,9.24
2019-04-14T11:18:45.826Z,8.74
2019-04-14T11:21:15.182Z,9.06
2019-04-14T11:23:44.508Z,9.54
2019-04-14T11:26:13.858Z,9.92
2019-04-14T11:28:43.244Z,10.05
2019-04-14T11:34:12.551Z,9.22
2019-04-14T11:37:00.993Z,9.29
2019-04-14T11:39:30.336Z,9.60
2019-04-14T11:41:59.735Z,9.82
2019-04-14T11:44:29.111Z,9.49
2019-04-14T11:46:58.468Z,9.44
2019-04-14T11:49:27.884Z,9.98
2019-04-14T11:51:57.506Z,9.49
2019-04-14T11:54:26.924Z,9.42
2019-04-14T11:56:56.329Z,10.20
2019-04-14T11:59:44.859Z,9.84
2019-04-14T12:02:33.396Z,9.58
2019-04-14T12:05:21.894Z,9.99
2019-04-14T12:08:24.295Z,10.04
2019-04-14T12:10:53.749Z,9.87
2019-04-14T12:13:23.128Z,9.99
2019-04-14T12:15:52.484Z,9.89
2019-04-14T12:18:41.239Z,9.76
2019-04-14T12:21:10.590Z,9.93
2019-04-14T12:23:39.929Z,10.27
2019-04-14T12:26:09.261Z,10.24
2019-04-14T12:28:38.927Z,10.52
2019-04-14T12:34:09.751Z,10.26
2019-04-14T12:39:40.680Z,10.25
2019-04-14T12:47:49.245Z,11.24
2019-04-14T12:53:14.014Z,10.67
2019-04-14T12:55:43.357Z,10.65
2019-04-14T13:03:48.688Z,10.61
2019-04-14T13:06:18.406Z,10.31
2019-04-14T13:08:47.749Z,10.37
2019-04-14T13:11:17.099Z,10.44
2019-04-14T13:13:46.444Z,10.65
2019-04-14T13:16:15.853Z,10.63
2019-04-14T13:18:45.307Z,10.81
2019-04-14T13:21:14.646Z,10.47
2019-04-14T13:23:44.002Z,10.85
2019-04-14T13:26:32.762Z,10.94
2019-04-14T13:29:02.122Z,10.70
2019-04-14T13:31:31.459Z,10.84
2019-04-14T13:34:01.078Z,11.35
2019-04-14T13:36:30.412Z,10.57
2019-04-14T13:38:59.749Z,10.86
2019-04-14T13:41:29.100Z,10.88
2019-04-14T13:43:58.469Z,10.78
2019-04-14T13:46:27.820Z,10.53
2019-04-14T13:49:16.759Z,10.89
2019-04-14T13:51:46.458Z,11.13
2019-04-14T13:54:15.813Z,11.26
2019-04-14T13:56:45.180Z,10.74
2019-04-14T13:59:14.579Z,10.69
2019-04-14T14:01:43.975Z,10.81
2019-04-14T14:04:13.450Z,10.64
2019-04-14T14:06:42.937Z,10.71
2019-04-14T14:15:07.304Z,11.24
2019-04-14T14:20:36.339Z,10.73
2019-04-14T14:26:54.876Z,10.90
2019-04-14T14:35:14.640Z,11.17
2019-04-14T14:37:44.044Z,11.10
2019-04-14T14:43:22.509Z,10.65
2019-04-14T14:46:11.033Z,10.74
2019-04-14T14:51:54.941Z,10.94
2019-04-14T14:54:24.347Z,10.75
2019-04-14T14:56:53.772Z,10.94
2019-04-14T14:59:23.160Z,10.41
2019-04-14T15:01:52.523Z,10.74
2019-04-14T15:04:22.004Z,10.27
2019-04-14T15:06:51.370Z,10.08
2019-04-14T15:09:20.778Z,10.39
2019-04-14T15:11:50.193Z,10.80
2019-04-14T15:14:19.626Z,10.71
2019-04-14T15:16:49.131Z,10.20
2019-04-14T15:19:37.669Z,10.76
2019-04-14T15:22:26.469Z,10.26
2019-04-14T15:25:16.031Z,10.35
2019-04-14T15:27:47.119Z,10.66
2019-04-14T15:33:30.401Z,10.99
2019-04-14T15:36:19.073Z,10.15
2019-04-14T15:38:48.554Z,9.87
2019-04-14T15:42:17.075Z,9.58
2019-04-14T15:44:46.923Z,9.69
2019-04-14T15:47:35.546Z,9.84
2019-04-14T15:53:37.343Z,11.04
2019-04-14T15:56:02.322Z,10.83
2019-04-14T16:01:46.351Z,9.71
2019-04-14T16:04:35.090Z,9.65
2019-04-14T16:07:23.754Z,9.96
2019-04-14T16:18:27.464Z,10.66
2019-04-14T16:20:57.047Z,10.39
2019-04-14T16:23:26.612Z,10.29
2019-04-14T16:28:55.683Z,9.75
2019-04-14T16:37:00.897Z,10.05
2019-04-14T16:39:30.477Z,10.20
2019-04-14T16:42:00.035Z,10.33
2019-04-14T16:45:08.276Z,10.78
2019-04-14T16:47:39.490Z,10.49
2019-04-14T16:50:09.227Z,10.07
2019-04-14T16:52:57.890Z,9.71
2019-04-14T16:58:20.776Z,9.80
2019-04-14T17:01:09.582Z,9.46
2019-04-14T17:03:39.144Z,9.22
2019-04-14T17:06:08.729Z,9.11
2019-04-14T17:08:38.295Z,9.25
2019-04-14T17:11:27.264Z,9.20
2019-04-14T17:14:15.950Z,9.22
2019-04-14T17:28:15.611Z,8.60
2019-04-14T17:31:04.297Z,8.53
2019-04-14T17:33:53.222Z,8.45
2019-04-14T17:39:22.117Z,8.23
2019-04-14T17:42:10.792Z,8.23
2019-04-14T17:47:39.981Z,7.97
2019-04-14T17:53:31.163Z,7.85
2019-04-14T17:56:19.934Z,7.83
2019-04-14T17:59:08.957Z,7.82
2019-04-14T18:01:57.642Z,7.78
2019-04-14T18:04:46.395Z,7.61
2019-04-14T18:07:35.082Z,7.51
2019-04-14T18:13:57.521Z,7.51
2019-04-14T18:16:46.216Z,7.36
2019-04-14T18:22:12.107Z,7.23
2019-04-14T18:24:42.974Z,7.16
2019-04-14T18:33:27.914Z,7.15
2019-04-14T18:36:16.762Z,7.08
2019-04-14T18:39:05.479Z,6.92
2019-04-14T18:45:08.491Z,6.89
2019-04-14T18:47:57.197Z,6.83
2019-04-14T18:50:45.879Z,6.80
2019-04-14T18:53:34.660Z,6.78
2019-04-14T18:59:03.207Z,6.72
2019-04-14T19:04:32.418Z,6.69
2019-04-14T19:07:02.386Z,6.67
2019-04-14T19:09:31.969Z,6.65
2019-04-14T19:12:20.690Z,6.62
2019-04-14T19:15:09.399Z,6.51
2019-04-14T19:17:58.093Z,6.46
2019-04-14T19:20:27.666Z,6.37
2019-04-14T19:22:57.354Z,6.39
2019-04-14T19:25:26.932Z,6.33
2019-04-14T19:27:56.602Z,6.29
2019-04-14T19:30:26.195Z,6.22
2019-04-14T19:32:55.791Z,6.10
2019-04-14T19:35:26.889Z,6.10
2019-04-14T19:38:02.248Z,6.09
2019-04-14T19:40:31.964Z,6.00
2019-04-14T19:43:01.554Z,6.02
2019-04-14T19:45:31.078Z,5.98
2019-04-14T19:48:00.655Z,5.94
2019-04-14T19:50:30.255Z,5.92
2019-04-14T19:52:59.831Z,5.93
2019-04-14T19:55:29.842Z,5.84
2019-04-14T19:57:59.408Z,5.90
2019-04-14T20:00:28.996Z,5.92
2019-04-14T20:02:58.573Z,5.95
2019-04-14T20:05:28.161Z,5.89
2019-04-14T20:07:57.753Z,5.86
2019-04-14T20:10:27.317Z,5.88
2019-04-14T20:12:56.893Z,5.92
2019-04-14T20:18:54.674Z,5.78
2019-04-14T20:21:43.406Z,5.71
2019-04-14T20:24:32.112Z,5.70
2019-04-14T20:27:20.819Z,5.68
2019-04-14T20:32:46.467Z,5.66
2019-04-14T20:35:28.430Z,5.51
2019-04-14T20:37:58.011Z,5.52
2019-04-14T20:40:27.630Z,5.50
2019-04-14T20:42:57.150Z,5.48
2019-04-14T20:45:26.695Z,5.40
2019-04-14T20:47:56.169Z,5.40
2019-04-14T20:50:25.594Z,5.37
2019-04-14T20:52:54.999Z,5.28
2019-04-14T20:55:24.407Z,5.29
2019-04-14T20:57:53.777Z,5.24
2019-04-14T21:03:37.589Z,5.22
2019-04-14T21:06:26.057Z,5.14
2019-04-14T21:12:30.348Z,5.14
2019-04-14T21:15:18.827Z,5.06
2019-04-14T21:20:47.944Z,5.08
2019-04-14T21:26:32.176Z,4.97
2019-04-14T21:29:20.637Z,4.96
2019-04-14T21:37:29.059Z,4.88
2019-04-14T21:40:17.509Z,4.86
2019-04-14T21:42:46.844Z,4.83
2019-04-14T21:45:16.314Z,4.77
2019-04-14T21:47:45.659Z,4.72
2019-04-14T21:50:15.132Z,4.73
2019-04-14T21:55:39.614Z,4.77
2019-04-14T22:01:28.853Z,4.72
2019-04-14T22:04:17.299Z,4.83
2019-04-14T22:09:41.860Z,4.72
2019-04-14T22:12:11.207Z,4.56
2019-04-14T22:14:52.287Z,4.66
2019-04-14T22:17:21.642Z,4.66
2019-04-14T22:19:50.980Z,4.59
2019-04-14T22:23:00.240Z,4.56
2019-04-14T22:25:29.666Z,4.52
2019-04-14T22:27:59.011Z,4.56
2019-04-14T22:30:42.258Z,4.59
2019-04-14T22:33:11.624Z,4.53
2019-04-14T22:35:41.040Z,4.42
2019-04-14T22:38:22.868Z,4.55
2019-04-14T22:40:52.348Z,4.63
2019-04-14T22:43:21.641Z,4.68
2019-04-14T22:45:51.031Z,4.51
2019-04-14T22:48:20.456Z,4.34
2019-04-14T22:50:49.797Z,4.45
2019-04-14T22:53:19.134Z,4.36
2019-04-14T22:55:48.478Z,4.31
2019-04-14T22:58:17.817Z,4.35
2019-04-14T23:01:06.276Z,4.10
2019-04-14T23:03:54.887Z,4.00
2019-04-14T23:09:14.751Z,4.00
2019-04-14T23:12:03.210Z,4.04
2019-04-14T23:17:31.345Z,4.11
2019-04-14T23:23:00.779Z,4.14
2019-04-14T23:25:30.116Z,4.14
2019-04-14T23:27:59.457Z,4.06
2019-04-14T23:30:28.808Z,3.93
2019-04-14T23:32:58.141Z,3.76
2019-04-14T23:35:27.549Z,3.69
2019-04-14T23:37:56.899Z,3.56
2019-04-14T23:40:26.239Z,3.45
2019-04-14T23:42:55.576Z,3.47
2019-04-14T23:45:24.927Z,3.77
2019-04-14T23:47:59.756Z,3.78
2019-04-14T23:50:29.177Z,3.50
2019-04-14T23:52:58.519Z,3.57
2019-04-14T23:55:27.865Z,3.43
2019-04-14T23:57:57.219Z,3.40
